ASP401 KPUW-KPDX
Flight info
| Callsign | ASP401 |
|---|---|
| Flight time | 0h 46m |
| Altitude | 26000 |
| Route | JORAD HHOOD HHOOD6 |
| Aircraft | B461/M-SDFGIRWY/LB1 |
Departure
| Time | 2026-04-16 20:42 |
|---|---|
| Airport | Pullman-Moscow Regional Airport (KPUW) |
Arrival
| Time | 2026-04-16 21:28 |
|---|---|
| Airport | Portland International Airport (KPDX) |
| Time | Latitude | Longitude | Altitude | Speed | Heading |
|---|---|---|---|---|---|
| 2026-04-16 20:27 | 46.74126 | -117.12077 | 2574 ft | 0 kts | 334° |
| 2026-04-16 20:36 | 46.74124 | -117.12076 | 2574 ft | 1 kts | 334° |
| 2026-04-16 20:36 | 46.74110 | -117.12066 | 2574 ft | 2 kts | 337° |
| 2026-04-16 20:36 | 46.74095 | -117.12058 | 2574 ft | 0 kts | 338° |
| 2026-04-16 20:38 | 46.74108 | -117.12026 | 2574 ft | 7 kts | 83° |
| 2026-04-16 20:38 | 46.74115 | -117.11948 | 2574 ft | 8 kts | 83° |
| 2026-04-16 20:39 | 46.74095 | -117.11855 | 2574 ft | 11 kts | 119° |
| 2026-04-16 20:39 | 46.74111 | -117.11728 | 2574 ft | 19 kts | 67° |
| 2026-04-16 20:39 | 46.74184 | -117.11498 | 2574 ft | 28 kts | 64° |
| 2026-04-16 20:39 | 46.74268 | -117.11241 | 2574 ft | 28 kts | 65° |
| 2026-04-16 20:40 | 46.74356 | -117.10970 | 2573 ft | 29 kts | 65° |
| 2026-04-16 20:40 | 46.74444 | -117.10695 | 2573 ft | 30 kts | 64° |
| 2026-04-16 20:40 | 46.74535 | -117.10409 | 2573 ft | 31 kts | 64° |
| 2026-04-16 20:40 | 46.74634 | -117.10126 | 2573 ft | 30 kts | 62° |
| 2026-04-16 20:41 | 46.74652 | -117.09946 | 2573 ft | 14 kts | 147° |
| 2026-04-16 20:41 | 46.74570 | -117.09941 | 2573 ft | 11 kts | 239° |
| 2026-04-16 20:41 | 46.74465 | -117.10261 | 2573 ft | 77 kts | 245° |
| 2026-04-16 20:41 | 46.74141 | -117.11247 | 2823 ft | 124 kts | 246° |
| 2026-04-16 20:42 | 46.73756 | -117.12463 | 3332 ft | 148 kts | 251° |
| 2026-04-16 20:42 | 46.73352 | -117.13989 | 3865 ft | 174 kts | 250° |
| 2026-04-16 20:42 | 46.72894 | -117.15726 | 4375 ft | 197 kts | 250° |
| 2026-04-16 20:42 | 46.72451 | -117.17406 | 5029 ft | 213 kts | 250° |
| 2026-04-16 20:43 | 46.71909 | -117.19454 | 5829 ft | 230 kts | 249° |
| 2026-04-16 20:43 | 46.71316 | -117.21694 | 6570 ft | 248 kts | 249° |
| 2026-04-16 20:43 | 46.70678 | -117.24102 | 7419 ft | 260 kts | 249° |
| 2026-04-16 20:43 | 46.70023 | -117.26567 | 8301 ft | 269 kts | 249° |
| 2026-04-16 20:44 | 46.69342 | -117.29123 | 9188 ft | 276 kts | 249° |
| 2026-04-16 20:44 | 46.68650 | -117.31719 | 10053 ft | 283 kts | 249° |
| 2026-04-16 20:44 | 46.67926 | -117.34431 | 10766 ft | 295 kts | 249° |
| 2026-04-16 20:44 | 46.67170 | -117.37257 | 11330 ft | 307 kts | 249° |
| 2026-04-16 20:45 | 46.66392 | -117.40160 | 11915 ft | 314 kts | 249° |
| 2026-04-16 20:45 | 46.65590 | -117.43146 | 12547 ft | 318 kts | 249° |
| 2026-04-16 20:45 | 46.64780 | -117.46161 | 13178 ft | 322 kts | 249° |
| 2026-04-16 20:45 | 46.63963 | -117.49192 | 13788 ft | 325 kts | 249° |
| 2026-04-16 20:46 | 46.63141 | -117.52238 | 14375 ft | 328 kts | 249° |
| 2026-04-16 20:46 | 46.62314 | -117.55296 | 14937 ft | 331 kts | 249° |
| 2026-04-16 20:46 | 46.61463 | -117.58440 | 15489 ft | 334 kts | 249° |
| 2026-04-16 20:46 | 46.60614 | -117.61570 | 16013 ft | 337 kts | 249° |
| 2026-04-16 20:47 | 46.59750 | -117.64752 | 16527 ft | 339 kts | 249° |
| 2026-04-16 20:47 | 46.58878 | -117.67956 | 17040 ft | 341 kts | 248° |
| 2026-04-16 20:47 | 46.58003 | -117.71163 | 17528 ft | 343 kts | 248° |
| 2026-04-16 20:47 | 46.57116 | -117.74413 | 17994 ft | 346 kts | 248° |
| 2026-04-16 20:48 | 46.56230 | -117.77651 | 18435 ft | 348 kts | 248° |
| 2026-04-16 20:48 | 46.55332 | -117.80928 | 18857 ft | 351 kts | 248° |
| 2026-04-16 20:48 | 46.54436 | -117.84193 | 19259 ft | 353 kts | 248° |
| 2026-04-16 20:48 | 46.53519 | -117.87530 | 19653 ft | 355 kts | 248° |
| 2026-04-16 20:49 | 46.52607 | -117.90844 | 20028 ft | 357 kts | 248° |
| 2026-04-16 20:49 | 46.51677 | -117.94215 | 20396 ft | 359 kts | 248° |
| 2026-04-16 20:49 | 46.50753 | -117.97559 | 20743 ft | 361 kts | 248° |
| 2026-04-16 20:49 | 46.49817 | -118.00942 | 20988 ft | 363 kts | 248° |
| 2026-04-16 20:50 | 46.48880 | -118.04323 | 21215 ft | 365 kts | 248° |
| 2026-04-16 20:50 | 46.47932 | -118.07741 | 21521 ft | 366 kts | 248° |
| 2026-04-16 20:50 | 46.46973 | -118.11189 | 21817 ft | 368 kts | 248° |
| 2026-04-16 20:50 | 46.46018 | -118.14620 | 22100 ft | 370 kts | 248° |
| 2026-04-16 20:51 | 46.45058 | -118.18064 | 22374 ft | 371 kts | 248° |
| 2026-04-16 20:51 | 46.44080 | -118.21564 | 22642 ft | 373 kts | 248° |
| 2026-04-16 20:51 | 46.43109 | -118.25035 | 22897 ft | 375 kts | 248° |
| 2026-04-16 20:51 | 46.42134 | -118.28516 | 23143 ft | 376 kts | 248° |
| 2026-04-16 20:52 | 46.41152 | -118.32015 | 23380 ft | 377 kts | 248° |
| 2026-04-16 20:52 | 46.40155 | -118.35560 | 23612 ft | 379 kts | 248° |
| 2026-04-16 20:52 | 46.39165 | -118.39079 | 23834 ft | 380 kts | 248° |
| 2026-04-16 20:52 | 46.38160 | -118.42643 | 24050 ft | 382 kts | 248° |
| 2026-04-16 20:53 | 46.37165 | -118.46168 | 24257 ft | 383 kts | 248° |
| 2026-04-16 20:53 | 46.36156 | -118.49734 | 24457 ft | 384 kts | 248° |
| 2026-04-16 20:53 | 46.35139 | -118.53327 | 24651 ft | 385 kts | 248° |
| 2026-04-16 20:53 | 46.34117 | -118.56928 | 24839 ft | 386 kts | 248° |
| 2026-04-16 20:54 | 46.33110 | -118.60474 | 25017 ft | 387 kts | 248° |
| 2026-04-16 20:54 | 46.32079 | -118.64095 | 25193 ft | 389 kts | 248° |
| 2026-04-16 20:54 | 46.31045 | -118.67725 | 25366 ft | 390 kts | 247° |
| 2026-04-16 20:54 | 46.30011 | -118.71349 | 25542 ft | 391 kts | 247° |
| 2026-04-16 20:55 | 46.28971 | -118.74986 | 25709 ft | 392 kts | 247° |
| 2026-04-16 20:55 | 46.27919 | -118.78658 | 25867 ft | 393 kts | 247° |
| 2026-04-16 20:55 | 46.26884 | -118.82268 | 25886 ft | 393 kts | 247° |
| 2026-04-16 20:55 | 46.25830 | -118.85939 | 26031 ft | 394 kts | 247° |
| 2026-04-16 20:56 | 46.24777 | -118.89600 | 26167 ft | 395 kts | 247° |
| 2026-04-16 20:56 | 46.23723 | -118.93260 | 26203 ft | 397 kts | 247° |
| 2026-04-16 20:56 | 46.22659 | -118.96949 | 26208 ft | 397 kts | 247° |
| 2026-04-16 20:56 | 46.21600 | -119.00612 | 26209 ft | 396 kts | 247° |
| 2026-04-16 20:57 | 46.20531 | -119.04308 | 26211 ft | 396 kts | 247° |
| 2026-04-16 20:57 | 46.19479 | -119.07937 | 26211 ft | 395 kts | 247° |
| 2026-04-16 20:57 | 46.18413 | -119.11610 | 26211 ft | 395 kts | 247° |
| 2026-04-16 20:57 | 46.17346 | -119.15279 | 26210 ft | 394 kts | 247° |
| 2026-04-16 20:58 | 46.16297 | -119.18883 | 26210 ft | 394 kts | 247° |
| 2026-04-16 20:58 | 46.15233 | -119.22532 | 26171 ft | 392 kts | 247° |
| 2026-04-16 20:58 | 46.14173 | -119.26162 | 26205 ft | 391 kts | 247° |
| 2026-04-16 20:58 | 46.13129 | -119.29732 | 26209 ft | 391 kts | 247° |
| 2026-04-16 20:59 | 46.12066 | -119.33360 | 26209 ft | 391 kts | 247° |
| 2026-04-16 20:59 | 46.11011 | -119.36958 | 26209 ft | 391 kts | 247° |
| 2026-04-16 20:59 | 46.09946 | -119.40581 | 26209 ft | 392 kts | 247° |
| 2026-04-16 20:59 | 46.08894 | -119.44158 | 26210 ft | 394 kts | 247° |
| 2026-04-16 21:00 | 46.07815 | -119.47823 | 26211 ft | 395 kts | 247° |
| 2026-04-16 21:00 | 46.06743 | -119.51461 | 26210 ft | 397 kts | 247° |
| 2026-04-16 21:00 | 46.05662 | -119.55120 | 26210 ft | 398 kts | 247° |
| 2026-04-16 21:00 | 46.04577 | -119.58790 | 26209 ft | 399 kts | 247° |
| 2026-04-16 21:01 | 46.03496 | -119.62437 | 26289 ft | 402 kts | 247° |
| 2026-04-16 21:01 | 46.02379 | -119.66201 | 26313 ft | 408 kts | 246° |
| 2026-04-16 21:01 | 46.01254 | -119.69988 | 26311 ft | 412 kts | 246° |
| 2026-04-16 21:01 | 46.00132 | -119.73756 | 26231 ft | 409 kts | 246° |
| 2026-04-16 21:02 | 45.99025 | -119.77469 | 26092 ft | 402 kts | 246° |
| 2026-04-16 21:02 | 45.97931 | -119.81136 | 26195 ft | 398 kts | 246° |
| 2026-04-16 21:02 | 45.96843 | -119.84776 | 26306 ft | 399 kts | 246° |
| 2026-04-16 21:03 | 45.94628 | -119.92168 | 26186 ft | 404 kts | 246° |
| 2026-04-16 21:03 | 45.93515 | -119.95873 | 26181 ft | 402 kts | 246° |
| 2026-04-16 21:03 | 45.92422 | -119.99508 | 26182 ft | 402 kts | 246° |
| 2026-04-16 21:03 | 45.91312 | -120.03198 | 26182 ft | 403 kts | 246° |
| 2026-04-16 21:04 | 45.90192 | -120.06911 | 26182 ft | 405 kts | 246° |
| 2026-04-16 21:04 | 45.89061 | -120.10658 | 26182 ft | 407 kts | 246° |
| 2026-04-16 21:04 | 45.87940 | -120.14368 | 26182 ft | 408 kts | 246° |
| 2026-04-16 21:04 | 45.86808 | -120.18106 | 26181 ft | 409 kts | 246° |
| 2026-04-16 21:05 | 45.85685 | -120.21813 | 26180 ft | 406 kts | 246° |
| 2026-04-16 21:05 | 45.84553 | -120.25542 | 26179 ft | 403 kts | 246° |
| 2026-04-16 21:05 | 45.83438 | -120.29209 | 26180 ft | 401 kts | 246° |
| 2026-04-16 21:05 | 45.82337 | -120.32828 | 26181 ft | 399 kts | 246° |
| 2026-04-16 21:06 | 45.81236 | -120.36460 | 26180 ft | 397 kts | 248° |
| 2026-04-16 21:06 | 45.80541 | -120.40250 | 26186 ft | 395 kts | 261° |
| 2026-04-16 21:06 | 45.79867 | -120.44092 | 26148 ft | 393 kts | 253° |
| 2026-04-16 21:06 | 45.79093 | -120.47832 | 25448 ft | 391 kts | 253° |
| 2026-04-16 21:07 | 45.78328 | -120.51504 | 24733 ft | 387 kts | 253° |
| 2026-04-16 21:07 | 45.77558 | -120.55193 | 24169 ft | 386 kts | 253° |
| 2026-04-16 21:07 | 45.76790 | -120.58870 | 23692 ft | 386 kts | 253° |
| 2026-04-16 21:07 | 45.76022 | -120.62552 | 23216 ft | 385 kts | 253° |
| 2026-04-16 21:08 | 45.75262 | -120.66190 | 22748 ft | 385 kts | 253° |
| 2026-04-16 21:08 | 45.74498 | -120.69847 | 22279 ft | 384 kts | 253° |
| 2026-04-16 21:08 | 45.73739 | -120.73474 | 21814 ft | 381 kts | 253° |
| 2026-04-16 21:08 | 45.72980 | -120.77108 | 21355 ft | 376 kts | 253° |
| 2026-04-16 21:09 | 45.72243 | -120.80634 | 20910 ft | 371 kts | 253° |
| 2026-04-16 21:09 | 45.71505 | -120.84161 | 20464 ft | 368 kts | 253° |
| 2026-04-16 21:09 | 45.70781 | -120.87612 | 20031 ft | 364 kts | 253° |
| 2026-04-16 21:09 | 45.70055 | -120.91067 | 19597 ft | 361 kts | 253° |
| 2026-04-16 21:10 | 45.69337 | -120.94491 | 19169 ft | 359 kts | 253° |
| 2026-04-16 21:10 | 45.68623 | -120.97884 | 18747 ft | 356 kts | 253° |
| 2026-04-16 21:10 | 45.67910 | -121.01276 | 18328 ft | 354 kts | 253° |
| 2026-04-16 21:10 | 45.67212 | -121.04588 | 17916 ft | 352 kts | 253° |
| 2026-04-16 21:11 | 45.66504 | -121.07947 | 17490 ft | 351 kts | 253° |
| 2026-04-16 21:11 | 45.65808 | -121.11243 | 17077 ft | 349 kts | 253° |
| 2026-04-16 21:11 | 45.65106 | -121.14569 | 16661 ft | 348 kts | 253° |
| 2026-04-16 21:11 | 45.64416 | -121.17833 | 16257 ft | 346 kts | 253° |
| 2026-04-16 21:12 | 45.63713 | -121.21152 | 15851 ft | 345 kts | 253° |
| 2026-04-16 21:12 | 45.63025 | -121.24393 | 15460 ft | 343 kts | 253° |
| 2026-04-16 21:12 | 45.62338 | -121.27631 | 15091 ft | 341 kts | 253° |
| 2026-04-16 21:12 | 45.61654 | -121.30846 | 14718 ft | 340 kts | 253° |
| 2026-04-16 21:13 | 45.60962 | -121.34099 | 14335 ft | 339 kts | 253° |
| 2026-04-16 21:13 | 45.60283 | -121.37290 | 13967 ft | 337 kts | 253° |
| 2026-04-16 21:13 | 45.59604 | -121.40474 | 13644 ft | 336 kts | 253° |
| 2026-04-16 21:13 | 45.58924 | -121.43655 | 13288 ft | 335 kts | 253° |
| 2026-04-16 21:14 | 45.58250 | -121.46809 | 12943 ft | 333 kts | 253° |
| 2026-04-16 21:14 | 45.57572 | -121.49977 | 12607 ft | 331 kts | 253° |
| 2026-04-16 21:14 | 45.56909 | -121.53070 | 12295 ft | 329 kts | 253° |
| 2026-04-16 21:14 | 45.56253 | -121.56124 | 11992 ft | 309 kts | 253° |
| 2026-04-16 21:15 | 45.55648 | -121.58935 | 11730 ft | 289 kts | 253° |
| 2026-04-16 21:15 | 45.55058 | -121.61678 | 11524 ft | 290 kts | 253° |
| 2026-04-16 21:15 | 45.54466 | -121.64436 | 11354 ft | 293 kts | 253° |
| 2026-04-16 21:15 | 45.53867 | -121.67226 | 11213 ft | 293 kts | 252° |
| 2026-04-16 21:16 | 45.53267 | -121.70016 | 11059 ft | 291 kts | 254° |
| 2026-04-16 21:16 | 45.53047 | -121.72829 | 10801 ft | 291 kts | 272° |
| 2026-04-16 21:16 | 45.53177 | -121.75696 | 10551 ft | 291 kts | 273° |
| 2026-04-16 21:16 | 45.53283 | -121.78524 | 10297 ft | 281 kts | 273° |
| 2026-04-16 21:17 | 45.53389 | -121.81262 | 10041 ft | 270 kts | 273° |
| 2026-04-16 21:17 | 45.53491 | -121.83910 | 9507 ft | 266 kts | 273° |
| 2026-04-16 21:17 | 45.53591 | -121.86500 | 9068 ft | 262 kts | 273° |
| 2026-04-16 21:17 | 45.53691 | -121.89084 | 8642 ft | 262 kts | 273° |
| 2026-04-16 21:18 | 45.53791 | -121.91686 | 8226 ft | 261 kts | 273° |
| 2026-04-16 21:18 | 45.53892 | -121.94231 | 7835 ft | 259 kts | 273° |
| 2026-04-16 21:18 | 45.53989 | -121.96745 | 7471 ft | 251 kts | 273° |
| 2026-04-16 21:18 | 45.54087 | -121.99174 | 7139 ft | 241 kts | 273° |
| 2026-04-16 21:19 | 45.54161 | -122.01538 | 6899 ft | 230 kts | 267° |
| 2026-04-16 21:19 | 45.53737 | -122.03712 | 6773 ft | 231 kts | 240° |
| 2026-04-16 21:19 | 45.52859 | -122.05625 | 6633 ft | 234 kts | 237° |
| 2026-04-16 21:19 | 45.51984 | -122.07594 | 6484 ft | 234 kts | 237° |
| 2026-04-16 21:20 | 45.51104 | -122.09547 | 6335 ft | 233 kts | 237° |
| 2026-04-16 21:20 | 45.50241 | -122.11468 | 6194 ft | 232 kts | 237° |
| 2026-04-16 21:20 | 45.49377 | -122.13391 | 6046 ft | 231 kts | 237° |
| 2026-04-16 21:20 | 45.48507 | -122.15327 | 5893 ft | 230 kts | 238° |
| 2026-04-16 21:21 | 45.47891 | -122.17404 | 5584 ft | 229 kts | 261° |
| 2026-04-16 21:21 | 45.47889 | -122.19652 | 5280 ft | 226 kts | 273° |
| 2026-04-16 21:21 | 45.47960 | -122.21873 | 4968 ft | 224 kts | 274° |
| 2026-04-16 21:21 | 45.48056 | -122.24066 | 4662 ft | 222 kts | 266° |
| 2026-04-16 21:22 | 45.47999 | -122.26259 | 4349 ft | 221 kts | 271° |
| 2026-04-16 21:22 | 45.48058 | -122.28429 | 4037 ft | 220 kts | 274° |
| 2026-04-16 21:22 | 45.48445 | -122.30532 | 3732 ft | 219 kts | 294° |
| 2026-04-16 21:22 | 45.49107 | -122.32491 | 3418 ft | 219 kts | 296° |
| 2026-04-16 21:23 | 45.49778 | -122.34416 | 3108 ft | 219 kts | 297° |
| 2026-04-16 21:23 | 45.50462 | -122.36310 | 2917 ft | 208 kts | 298° |
| 2026-04-16 21:23 | 45.51123 | -122.38086 | 2892 ft | 199 kts | 298° |
| 2026-04-16 21:23 | 45.51759 | -122.39761 | 2693 ft | 180 kts | 298° |
| 2026-04-16 21:24 | 45.52311 | -122.41200 | 2495 ft | 154 kts | 299° |
| 2026-04-16 21:24 | 45.52790 | -122.42440 | 2299 ft | 136 kts | 299° |
| 2026-04-16 21:24 | 45.53241 | -122.43600 | 2122 ft | 130 kts | 299° |
| 2026-04-16 21:24 | 45.53673 | -122.44704 | 1952 ft | 125 kts | 299° |
| 2026-04-16 21:25 | 45.54103 | -122.45805 | 1786 ft | 129 kts | 299° |
| 2026-04-16 21:25 | 45.54543 | -122.46931 | 1614 ft | 132 kts | 299° |
| 2026-04-16 21:25 | 45.54991 | -122.48076 | 1434 ft | 131 kts | 300° |
| 2026-04-16 21:25 | 45.55431 | -122.49197 | 1258 ft | 129 kts | 300° |
| 2026-04-16 21:26 | 45.55868 | -122.50314 | 1082 ft | 127 kts | 300° |
| 2026-04-16 21:26 | 45.56292 | -122.51396 | 913 ft | 125 kts | 300° |
| 2026-04-16 21:26 | 45.56715 | -122.52478 | 744 ft | 124 kts | 300° |
| 2026-04-16 21:26 | 45.57133 | -122.53546 | 578 ft | 123 kts | 300° |
| 2026-04-16 21:27 | 45.57555 | -122.54624 | 411 ft | 122 kts | 300° |
| 2026-04-16 21:27 | 45.57973 | -122.55686 | 237 ft | 123 kts | 300° |
| 2026-04-16 21:27 | 45.58375 | -122.56745 | 81 ft | 122 kts | 300° |
| 2026-04-16 21:27 | 45.58767 | -122.57739 | 25 ft | 100 kts | 299° |
| 2026-04-16 21:28 | 45.59058 | -122.58482 | 25 ft | 74 kts | 300° |
| 2026-04-16 21:28 | 45.59206 | -122.58925 | 25 ft | 19 kts | 276° |
| 2026-04-16 21:28 | 45.59209 | -122.59120 | 25 ft | 19 kts | 270° |
| 2026-04-16 21:28 | 45.59252 | -122.59303 | 25 ft | 21 kts | 298° |
| 2026-04-16 21:29 | 45.59325 | -122.59491 | 28 ft | 21 kts | 301° |
| 2026-04-16 21:29 | 45.59323 | -122.59663 | 28 ft | 18 kts | 240° |
| 2026-04-16 21:29 | 45.59237 | -122.59811 | 27 ft | 20 kts | 225° |
| 2026-04-16 21:29 | 45.59112 | -122.59824 | 25 ft | 19 kts | 137° |
| 2026-04-16 21:30 | 45.59060 | -122.59682 | 25 ft | 9 kts | 92° |
| 2026-04-16 21:30 | 45.59094 | -122.59629 | 25 ft | 7 kts | 6° |
| 2026-04-16 21:30 | 45.59100 | -122.59628 | 25 ft | 0 kts | 7° |